Maua, Brazil
Current Conditions -  °F | °C
As of 10:00 AM on Monday 24 Nov 2014 (Local Time) from SBSP Reporting Station
Broken Clouds Broken Clouds  
Wind Chill: 73°   Ceiling: 1700
Heat Index: 73°   Visibility: 6mi
Dew Point: 63°   Wind: 9mph
Humidity: 69%   Direction: 90°E
Pressure: 30.12"   Gusts: NA
Location:  23.66°S, 46.46°W
Report Text: SBSP 241200Z 09008KT 050V130 9999 BKN017 23/17 Q1020
Loading
Personal Weather Stations






























Interactive Weather Map New forecast layout! Learn more

10-Day Weather Forecast

Advertisements
Track Severe Weather on mobile